sensor_id;sensor_type;location;lat;lon;timestamp;pressure;altitude;pressure_sealevel;temperature
4421;BMP180;11824;51.178;13.546;2022-08-24T00:01:16;100609.00;;;19.30
4421;BMP180;11824;51.178;13.546;2022-08-24T00:03:46;100604.00;;;19.30
4421;BMP180;11824;51.178;13.546;2022-08-24T00:06:22;100609.00;;;19.30
4421;BMP180;11824;51.178;13.546;2022-08-24T00:08:52;100612.00;;;19.30
4421;BMP180;11824;51.178;13.546;2022-08-24T00:11:21;100607.00;;;19.30
4421;BMP180;11824;51.178;13.546;2022-08-24T00:13:50;100604.00;;;19.30
4421;BMP180;11824;51.178;13.546;2022-08-24T00:16:20;100606.00;;;19.30
4421;BMP180;11824;51.178;13.546;2022-08-24T00:18:51;100612.00;;;19.30
4421;BMP180;11824;51.178;13.546;2022-08-24T00:21:21;100611.00;;;19.30
4421;BMP180;11824;51.178;13.546;2022-08-24T00:23:50;100611.00;;;19.30
4421;BMP180;11824;51.178;13.546;2022-08-24T00:26:18;100599.00;;;19.40
4421;BMP180;11824;51.178;13.546;2022-08-24T00:28:55;100607.00;;;19.30
4421;BMP180;11824;51.178;13.546;2022-08-24T00:31:25;100608.00;;;19.40
4421;BMP180;11824;51.178;13.546;2022-08-24T00:33:54;100604.00;;;19.40
4421;BMP180;11824;51.178;13.546;2022-08-24T00:36:23;100597.00;;;19.40
4421;BMP180;11824;51.178;13.546;2022-08-24T00:38:52;100608.00;;;19.40
4421;BMP180;11824;51.178;13.546;2022-08-24T00:41:21;100608.00;;;19.40
4421;BMP180;11824;51.178;13.546;2022-08-24T00:43:52;100607.00;;;19.40
4421;BMP180;11824;51.178;13.546;2022-08-24T00:46:25;100600.00;;;19.40
4421;BMP180;11824;51.178;13.546;2022-08-24T00:49:00;100603.00;;;19.50
4421;BMP180;11824;51.178;13.546;2022-08-24T00:51:33;100609.00;;;19.50
4421;BMP180;11824;51.178;13.546;2022-08-24T00:54:07;100609.00;;;19.50
4421;BMP180;11824;51.178;13.546;2022-08-24T00:56:40;100601.00;;;19.50
4421;BMP180;11824;51.178;13.546;2022-08-24T00:59:12;100591.00;;;19.50
4421;BMP180;11824;51.178;13.546;2022-08-24T01:01:43;100607.00;;;19.60
4421;BMP180;11824;51.178;13.546;2022-08-24T01:04:19;100603.00;;;19.60
4421;BMP180;11824;51.178;13.546;2022-08-24T01:06:48;100597.00;;;19.60
4421;BMP180;11824;51.178;13.546;2022-08-24T01:09:17;100607.00;;;19.60
4421;BMP180;11824;51.178;13.546;2022-08-24T01:11:46;100605.00;;;19.60
4421;BMP180;11824;51.178;13.546;2022-08-24T01:14:16;100602.00;;;19.60
4421;BMP180;11824;51.178;13.546;2022-08-24T01:16:47;100597.00;;;19.60
4421;BMP180;11824;51.178;13.546;2022-08-24T01:19:36;100595.00;;;19.60
4421;BMP180;11824;51.178;13.546;2022-08-24T01:22:18;100608.00;;;19.70
4421;BMP180;11824;51.178;13.546;2022-08-24T01:24:49;100602.00;;;19.70
4421;BMP180;11824;51.178;13.546;2022-08-24T01:27:18;100603.00;;;19.70
4421;BMP180;11824;51.178;13.546;2022-08-24T01:29:55;100601.00;;;19.70
4421;BMP180;11824;51.178;13.546;2022-08-24T01:32:25;100606.00;;;19.70
4421;BMP180;11824;51.178;13.546;2022-08-24T01:34:56;100603.00;;;19.70
4421;BMP180;11824;51.178;13.546;2022-08-24T01:37:24;100607.00;;;19.70
4421;BMP180;11824;51.178;13.546;2022-08-24T01:39:56;100608.00;;;19.70
4421;BMP180;11824;51.178;13.546;2022-08-24T01:42:25;100605.00;;;19.70
4421;BMP180;11824;51.178;13.546;2022-08-24T01:44:56;100605.00;;;19.70
4421;BMP180;11824;51.178;13.546;2022-08-24T01:47:24;100599.00;;;19.60
4421;BMP180;11824;51.178;13.546;2022-08-24T01:49:53;100600.00;;;19.60
4421;BMP180;11824;51.178;13.546;2022-08-24T01:52:23;100601.00;;;19.60
4421;BMP180;11824;51.178;13.546;2022-08-24T01:55:05;100589.00;;;19.60
4421;BMP180;11824;51.178;13.546;2022-08-24T01:57:34;100596.00;;;19.50
4421;BMP180;11824;51.178;13.546;2022-08-24T02:00:06;100593.00;;;19.50
4421;BMP180;11824;51.178;13.546;2022-08-24T02:02:35;100596.00;;;19.40
4421;BMP180;11824;51.178;13.546;2022-08-24T02:05:05;100592.00;;;19.40
4421;BMP180;11824;51.178;13.546;2022-08-24T02:07:33;100595.00;;;19.30
4421;BMP180;11824;51.178;13.546;2022-08-24T02:10:04;100602.00;;;19.30
4421;BMP180;11824;51.178;13.546;2022-08-24T02:12:33;100600.00;;;19.20
4421;BMP180;11824;51.178;13.546;2022-08-24T02:15:02;100602.00;;;19.10
4421;BMP180;11824;51.178;13.546;2022-08-24T02:17:32;100600.00;;;19.10
4421;BMP180;11824;51.178;13.546;2022-08-24T02:20:02;100598.00;;;19.00
4421;BMP180;11824;51.178;13.546;2022-08-24T02:22:30;100593.00;;;18.90
4421;BMP180;11824;51.178;13.546;2022-08-24T02:24:59;100601.00;;;18.90
4421;BMP180;11824;51.178;13.546;2022-08-24T02:27:30;100598.00;;;18.80
4421;BMP180;11824;51.178;13.546;2022-08-24T02:29:58;100601.00;;;18.80
4421;BMP180;11824;51.178;13.546;2022-08-24T02:32:27;100599.00;;;18.70
4421;BMP180;11824;51.178;13.546;2022-08-24T02:34:55;100593.00;;;18.60
4421;BMP180;11824;51.178;13.546;2022-08-24T02:37:24;100597.00;;;18.60
4421;BMP180;11824;51.178;13.546;2022-08-24T02:39:52;100597.00;;;18.50
4421;BMP180;11824;51.178;13.546;2022-08-24T02:42:21;100603.00;;;18.50
4421;BMP180;11824;51.178;13.546;2022-08-24T02:44:51;100595.00;;;18.50
4421;BMP180;11824;51.178;13.546;2022-08-24T02:47:21;100597.00;;;18.40
4421;BMP180;11824;51.178;13.546;2022-08-24T02:50:06;100599.00;;;18.40
4421;BMP180;11824;51.178;13.546;2022-08-24T02:52:35;100597.00;;;18.30
4421;BMP180;11824;51.178;13.546;2022-08-24T02:55:07;100607.00;;;18.30
4421;BMP180;11824;51.178;13.546;2022-08-24T02:57:36;100607.00;;;18.30
4421;BMP180;11824;51.178;13.546;2022-08-24T03:00:10;100607.00;;;18.20
4421;BMP180;11824;51.178;13.546;2022-08-24T03:02:39;100614.00;;;18.20
4421;BMP180;11824;51.178;13.546;2022-08-24T03:05:08;100607.00;;;18.20
4421;BMP180;11824;51.178;13.546;2022-08-24T03:07:37;100607.00;;;18.20
4421;BMP180;11824;51.178;13.546;2022-08-24T03:10:07;100608.00;;;18.20
4421;BMP180;11824;51.178;13.546;2022-08-24T03:12:37;100617.00;;;18.20
4421;BMP180;11824;51.178;13.546;2022-08-24T03:15:10;100611.00;;;18.20
4421;BMP180;11824;51.178;13.546;2022-08-24T03:17:42;100613.00;;;18.20
4421;BMP180;11824;51.178;13.546;2022-08-24T03:20:18;100618.00;;;18.20
4421;BMP180;11824;51.178;13.546;2022-08-24T03:22:48;100611.00;;;18.20
4421;BMP180;11824;51.178;13.546;2022-08-24T03:25:18;100613.00;;;18.30
4421;BMP180;11824;51.178;13.546;2022-08-24T03:27:51;100619.00;;;18.30
4421;BMP180;11824;51.178;13.546;2022-08-24T03:30:24;100621.00;;;18.30
4421;BMP180;11824;51.178;13.546;2022-08-24T03:32:54;100616.00;;;18.30
4421;BMP180;11824;51.178;13.546;2022-08-24T03:35:23;100617.00;;;18.30
4421;BMP180;11824;51.178;13.546;2022-08-24T03:37:51;100619.00;;;18.30
4421;BMP180;11824;51.178;13.546;2022-08-24T03:40:21;100621.00;;;18.30
4421;BMP180;11824;51.178;13.546;2022-08-24T03:42:53;100621.00;;;18.40
4421;BMP180;11824;51.178;13.546;2022-08-24T03:45:23;100629.00;;;18.40
4421;BMP180;11824;51.178;13.546;2022-08-24T03:47:52;100634.00;;;18.40
4421;BMP180;11824;51.178;13.546;2022-08-24T03:50:22;100633.00;;;18.40
4421;BMP180;11824;51.178;13.546;2022-08-24T03:52:51;100638.00;;;18.40
4421;BMP180;11824;51.178;13.546;2022-08-24T03:55:20;100640.00;;;18.40
4421;BMP180;11824;51.178;13.546;2022-08-24T03:57:49;100644.00;;;18.40
4421;BMP180;11824;51.178;13.546;2022-08-24T04:00:20;100645.00;;;18.40
4421;BMP180;11824;51.178;13.546;2022-08-24T04:02:50;100646.00;;;18.40
4421;BMP180;11824;51.178;13.546;2022-08-24T04:05:20;100655.00;;;18.40
4421;BMP180;11824;51.178;13.546;2022-08-24T04:07:49;100651.00;;;18.40
4421;BMP180;11824;51.178;13.546;2022-08-24T04:10:18;100655.00;;;18.50
4421;BMP180;11824;51.178;13.546;2022-08-24T04:12:47;100655.00;;;18.50
4421;BMP180;11824;51.178;13.546;2022-08-24T04:15:21;100656.00;;;18.50
4421;BMP180;11824;51.178;13.546;2022-08-24T04:17:53;100655.00;;;18.50
4421;BMP180;11824;51.178;13.546;2022-08-24T04:20:22;100658.00;;;18.50
4421;BMP180;11824;51.178;13.546;2022-08-24T04:22:53;100658.00;;;18.50
4421;BMP180;11824;51.178;13.546;2022-08-24T04:25:24;100658.00;;;18.60
4421;BMP180;11824;51.178;13.546;2022-08-24T04:27:52;100657.00;;;18.60
4421;BMP180;11824;51.178;13.546;2022-08-24T04:30:22;100647.00;;;18.60
4421;BMP180;11824;51.178;13.546;2022-08-24T04:32:53;100652.00;;;18.70
4421;BMP180;11824;51.178;13.546;2022-08-24T04:35:22;100659.00;;;18.70
4421;BMP180;11824;51.178;13.546;2022-08-24T04:37:51;100664.00;;;18.70
4421;BMP180;11824;51.178;13.546;2022-08-24T04:40:19;100670.00;;;18.80
4421;BMP180;11824;51.178;13.546;2022-08-24T04:42:49;100661.00;;;18.80
4421;BMP180;11824;51.178;13.546;2022-08-24T04:45:18;100662.00;;;18.80
4421;BMP180;11824;51.178;13.546;2022-08-24T04:47:46;100675.00;;;18.90
4421;BMP180;11824;51.178;13.546;2022-08-24T04:50:17;100684.00;;;18.90
4421;BMP180;11824;51.178;13.546;2022-08-24T04:52:45;100678.00;;;18.90
4421;BMP180;11824;51.178;13.546;2022-08-24T04:55:15;100672.00;;;19.00
4421;BMP180;11824;51.178;13.546;2022-08-24T04:57:43;100668.00;;;19.00
4421;BMP180;11824;51.178;13.546;2022-08-24T05:00:13;100670.00;;;19.10
4421;BMP180;11824;51.178;13.546;2022-08-24T05:02:42;100669.00;;;19.20
4421;BMP180;11824;51.178;13.546;2022-08-24T05:05:11;100680.00;;;19.30
4421;BMP180;11824;51.178;13.546;2022-08-24T05:07:42;100678.00;;;19.30
4421;BMP180;11824;51.178;13.546;2022-08-24T05:10:12;100664.00;;;19.40
4421;BMP180;11824;51.178;13.546;2022-08-24T05:12:41;100679.00;;;19.50
4421;BMP180;11824;51.178;13.546;2022-08-24T05:15:15;100681.00;;;19.70
4421;BMP180;11824;51.178;13.546;2022-08-24T05:17:44;100678.00;;;19.80
4421;BMP180;11824;51.178;13.546;2022-08-24T05:20:17;100680.00;;;20.20
4421;BMP180;11824;51.178;13.546;2022-08-24T05:22:50;100685.00;;;20.50
4421;BMP180;11824;51.178;13.546;2022-08-24T05:25:22;100688.00;;;20.80
4421;BMP180;11824;51.178;13.546;2022-08-24T05:27:52;100679.00;;;21.20
4421;BMP180;11824;51.178;13.546;2022-08-24T05:30:21;100689.00;;;21.70
4421;BMP180;11824;51.178;13.546;2022-08-24T05:33:07;100689.00;;;22.30
4421;BMP180;11824;51.178;13.546;2022-08-24T05:35:55;100693.00;;;23.00
4421;BMP180;11824;51.178;13.546;2022-08-24T05:38:24;100691.00;;;23.50
4421;BMP180;11824;51.178;13.546;2022-08-24T05:40:54;100692.00;;;24.10
4421;BMP180;11824;51.178;13.546;2022-08-24T05:43:38;100693.00;;;24.50
4421;BMP180;11824;51.178;13.546;2022-08-24T05:46:09;100706.00;;;24.90
4421;BMP180;11824;51.178;13.546;2022-08-24T05:49:07;100699.00;;;25.30
4421;BMP180;11824;51.178;13.546;2022-08-24T05:51:37;100696.00;;;25.60
4421;BMP180;11824;51.178;13.546;2022-08-24T05:54:18;100708.00;;;25.90
4421;BMP180;11824;51.178;13.546;2022-08-24T05:57:09;100702.00;;;26.20
4421;BMP180;11824;51.178;13.546;2022-08-24T05:59:45;100711.00;;;26.60
4421;BMP180;11824;51.178;13.546;2022-08-24T06:02:37;100713.00;;;26.90
4421;BMP180;11824;51.178;13.546;2022-08-24T06:05:21;100717.00;;;27.30
4421;BMP180;11824;51.178;13.546;2022-08-24T06:07:49;100720.00;;;27.50
4421;BMP180;11824;51.178;13.546;2022-08-24T06:10:27;100721.00;;;27.60
4421;BMP180;11824;51.178;13.546;2022-08-24T06:13:03;100721.00;;;27.80
4421;BMP180;11824;51.178;13.546;2022-08-24T06:15:47;100726.00;;;27.80
4421;BMP180;11824;51.178;13.546;2022-08-24T06:18:52;100729.00;;;27.90
4421;BMP180;11824;51.178;13.546;2022-08-24T06:21:49;100732.00;;;27.90
4421;BMP180;11824;51.178;13.546;2022-08-24T06:24:31;100730.00;;;27.90
4421;BMP180;11824;51.178;13.546;2022-08-24T06:27:28;100729.00;;;27.90
4421;BMP180;11824;51.178;13.546;2022-08-24T06:30:26;100733.00;;;27.80
4421;BMP180;11824;51.178;13.546;2022-08-24T06:33:33;100737.00;;;27.70
4421;BMP180;11824;51.178;13.546;2022-08-24T06:36:20;100733.00;;;27.70
4421;BMP180;11824;51.178;13.546;2022-08-24T06:39:07;100739.00;;;27.60
4421;BMP180;11824;51.178;13.546;2022-08-24T06:41:52;100738.00;;;27.40
4421;BMP180;11824;51.178;13.546;2022-08-24T06:44:47;100740.00;;;27.30
4421;BMP180;11824;51.178;13.546;2022-08-24T06:47:28;100734.00;;;27.00
4421;BMP180;11824;51.178;13.546;2022-08-24T06:50:11;100739.00;;;26.70
4421;BMP180;11824;51.178;13.546;2022-08-24T06:52:51;100731.00;;;26.40
4421;BMP180;11824;51.178;13.546;2022-08-24T06:55:37;100725.00;;;26.00
4421;BMP180;11824;51.178;13.546;2022-08-24T06:58:15;100724.00;;;25.70
4421;BMP180;11824;51.178;13.546;2022-08-24T07:00:51;100736.00;;;25.40
4421;BMP180;11824;51.178;13.546;2022-08-24T07:03:31;100741.00;;;25.20
4421;BMP180;11824;51.178;13.546;2022-08-24T07:06:09;100731.00;;;25.00
4421;BMP180;11824;51.178;13.546;2022-08-24T07:08:52;100741.00;;;24.80
4421;BMP180;11824;51.178;13.546;2022-08-24T07:12:00;100737.00;;;24.70
4421;BMP180;11824;51.178;13.546;2022-08-24T07:14:38;100743.00;;;24.60
4421;BMP180;11824;51.178;13.546;2022-08-24T07:17:24;100738.00;;;24.50
4421;BMP180;11824;51.178;13.546;2022-08-24T07:20:01;100722.00;;;24.40
4421;BMP180;11824;51.178;13.546;2022-08-24T07:22:41;100730.00;;;24.30
4421;BMP180;11824;51.178;13.546;2022-08-24T07:25:13;100734.00;;;24.30
4421;BMP180;11824;51.178;13.546;2022-08-24T07:27:58;100736.00;;;24.20
4421;BMP180;11824;51.178;13.546;2022-08-24T07:30:27;100734.00;;;24.20
4421;BMP180;11824;51.178;13.546;2022-08-24T07:32:57;100742.00;;;24.10
4421;BMP180;11824;51.178;13.546;2022-08-24T07:35:28;100745.00;;;24.10
4421;BMP180;11824;51.178;13.546;2022-08-24T07:38:00;100741.00;;;24.10
4421;BMP180;11824;51.178;13.546;2022-08-24T07:40:30;100748.00;;;24.10
4421;BMP180;11824;51.178;13.546;2022-08-24T07:43:21;100738.00;;;24.10
4421;BMP180;11824;51.178;13.546;2022-08-24T07:45:51;100738.00;;;24.10
4421;BMP180;11824;51.178;13.546;2022-08-24T07:48:20;100745.00;;;24.00
4421;BMP180;11824;51.178;13.546;2022-08-24T07:50:51;100741.00;;;24.00
4421;BMP180;11824;51.178;13.546;2022-08-24T07:53:21;100741.00;;;24.00
4421;BMP180;11824;51.178;13.546;2022-08-24T07:55:58;100739.00;;;24.10
4421;BMP180;11824;51.178;13.546;2022-08-24T07:58:28;100743.00;;;24.20
4421;BMP180;11824;51.178;13.546;2022-08-24T08:00:57;100744.00;;;24.20
4421;BMP180;11824;51.178;13.546;2022-08-24T08:03:27;100747.00;;;24.30
4421;BMP180;11824;51.178;13.546;2022-08-24T08:06:01;100746.00;;;24.30
4421;BMP180;11824;51.178;13.546;2022-08-24T08:08:33;100753.00;;;24.40
4421;BMP180;11824;51.178;13.546;2022-08-24T08:11:02;100751.00;;;24.50
4421;BMP180;11824;51.178;13.546;2022-08-24T08:13:33;100754.00;;;24.60
4421;BMP180;11824;51.178;13.546;2022-08-24T08:16:03;100750.00;;;24.70
4421;BMP180;11824;51.178;13.546;2022-08-24T08:18:35;100758.00;;;24.70
4421;BMP180;11824;51.178;13.546;2022-08-24T08:21:04;100754.00;;;24.80
4421;BMP180;11824;51.178;13.546;2022-08-24T08:23:53;100759.00;;;24.90
4421;BMP180;11824;51.178;13.546;2022-08-24T08:26:41;100753.00;;;25.00
4421;BMP180;11824;51.178;13.546;2022-08-24T08:29:12;100760.00;;;25.10
4421;BMP180;11824;51.178;13.546;2022-08-24T08:31:41;100761.00;;;25.10
4421;BMP180;11824;51.178;13.546;2022-08-24T08:34:12;100757.00;;;25.10
4421;BMP180;11824;51.178;13.546;2022-08-24T08:36:41;100764.00;;;25.10
4421;BMP180;11824;51.178;13.546;2022-08-24T08:39:13;100774.00;;;25.20
4421;BMP180;11824;51.178;13.546;2022-08-24T08:42:04;100763.00;;;25.30
4421;BMP180;11824;51.178;13.546;2022-08-24T08:44:55;100770.00;;;25.30
4421;BMP180;11824;51.178;13.546;2022-08-24T08:47:56;100779.00;;;25.30
4421;BMP180;11824;51.178;13.546;2022-08-24T08:50:35;100779.00;;;25.30
4421;BMP180;11824;51.178;13.546;2022-08-24T08:53:41;100777.00;;;25.30
4421;BMP180;11824;51.178;13.546;2022-08-24T08:56:24;100777.00;;;25.40
4421;BMP180;11824;51.178;13.546;2022-08-24T08:59:02;100786.00;;;25.40
4421;BMP180;11824;51.178;13.546;2022-08-24T09:01:43;100776.00;;;25.40
4421;BMP180;11824;51.178;13.546;2022-08-24T09:07:37;100772.00;;;25.40
4421;BMP180;11824;51.178;13.546;2022-08-24T09:10:32;100780.00;;;25.40
4421;BMP180;11824;51.178;13.546;2022-08-24T09:13:20;100766.00;;;25.40
4421;BMP180;11824;51.178;13.546;2022-08-24T09:16:10;100769.00;;;25.40
4421;BMP180;11824;51.178;13.546;2022-08-24T09:18:54;100767.00;;;25.40
4421;BMP180;11824;51.178;13.546;2022-08-24T09:27:54;100752.00;;;25.40
4421;BMP180;11824;51.178;13.546;2022-08-24T09:30:55;100741.00;;;25.40
4421;BMP180;11824;51.178;13.546;2022-08-24T09:33:43;100749.00;;;25.40
4421;BMP180;11824;51.178;13.546;2022-08-24T09:36:26;100745.00;;;25.40
4421;BMP180;11824;51.178;13.546;2022-08-24T09:39:11;100746.00;;;25.40
4421;BMP180;11824;51.178;13.546;2022-08-24T09:48:52;100728.00;;;25.60
4421;BMP180;11824;51.178;13.546;2022-08-24T09:55:13;100721.00;;;25.70
4421;BMP180;11824;51.178;13.546;2022-08-24T10:01:00;100734.00;;;26.00
4421;BMP180;11824;51.178;13.546;2022-08-24T10:03:54;100732.00;;;26.10
4421;BMP180;11824;51.178;13.546;2022-08-24T10:06:34;100732.00;;;26.20
4421;BMP180;11824;51.178;13.546;2022-08-24T10:12:31;100734.00;;;26.40
4421;BMP180;11824;51.178;13.546;2022-08-24T10:15:07;100724.00;;;26.50
4421;BMP180;11824;51.178;13.546;2022-08-24T10:17:56;100729.00;;;26.60
4421;BMP180;11824;51.178;13.546;2022-08-24T10:20:57;100727.00;;;26.70
4421;BMP180;11824;51.178;13.546;2022-08-24T10:23:51;100724.00;;;26.80
4421;BMP180;11824;51.178;13.546;2022-08-24T10:26:38;100721.00;;;26.90
4421;BMP180;11824;51.178;13.546;2022-08-24T10:29:30;100726.00;;;26.90
4421;BMP180;11824;51.178;13.546;2022-08-24T10:32:19;100723.00;;;26.90
4421;BMP180;11824;51.178;13.546;2022-08-24T10:35:04;100721.00;;;26.90
4421;BMP180;11824;51.178;13.546;2022-08-24T10:41:26;100721.00;;;27.30
4421;BMP180;11824;51.178;13.546;2022-08-24T10:47:23;100713.00;;;27.40
4421;BMP180;11824;51.178;13.546;2022-08-24T10:50:15;100720.00;;;27.50
4421;BMP180;11824;51.178;13.546;2022-08-24T10:53:03;100715.00;;;27.60
4421;BMP180;11824;51.178;13.546;2022-08-24T10:55:35;100717.00;;;27.70
4421;BMP180;11824;51.178;13.546;2022-08-24T10:58:19;100717.00;;;27.80
4421;BMP180;11824;51.178;13.546;2022-08-24T11:01:12;100712.00;;;27.80
4421;BMP180;11824;51.178;13.546;2022-08-24T11:03:49;100719.00;;;27.90
4421;BMP180;11824;51.178;13.546;2022-08-24T11:06:19;100716.00;;;27.90
4421;BMP180;11824;51.178;13.546;2022-08-24T11:08:53;100715.00;;;27.90
4421;BMP180;11824;51.178;13.546;2022-08-24T11:11:26;100723.00;;;27.90
4421;BMP180;11824;51.178;13.546;2022-08-24T11:13:56;100724.00;;;27.90
4421;BMP180;11824;51.178;13.546;2022-08-24T11:16:31;100719.00;;;27.90
4421;BMP180;11824;51.178;13.546;2022-08-24T11:19:05;100718.00;;;27.90
4421;BMP180;11824;51.178;13.546;2022-08-24T11:21:42;100717.00;;;27.90
4421;BMP180;11824;51.178;13.546;2022-08-24T11:24:25;100714.00;;;27.90
4421;BMP180;11824;51.178;13.546;2022-08-24T11:26:56;100716.00;;;27.90
4421;BMP180;11824;51.178;13.546;2022-08-24T11:29:27;100720.00;;;27.90
4421;BMP180;11824;51.178;13.546;2022-08-24T11:31:59;100724.00;;;27.90
4421;BMP180;11824;51.178;13.546;2022-08-24T11:34:35;100721.00;;;27.90
4421;BMP180;11824;51.178;13.546;2022-08-24T11:37:12;100712.00;;;28.00
4421;BMP180;11824;51.178;13.546;2022-08-24T11:39:42;100721.00;;;28.10
4421;BMP180;11824;51.178;13.546;2022-08-24T11:42:17;100709.00;;;28.20
4421;BMP180;11824;51.178;13.546;2022-08-24T11:45:00;100706.00;;;28.40
4421;BMP180;11824;51.178;13.546;2022-08-24T11:47:58;100714.00;;;28.50
4421;BMP180;11824;51.178;13.546;2022-08-24T11:50:47;100710.00;;;28.60
4421;BMP180;11824;51.178;13.546;2022-08-24T11:53:40;100719.00;;;28.70
4421;BMP180;11824;51.178;13.546;2022-08-24T11:56:45;100716.00;;;28.80
4421;BMP180;11824;51.178;13.546;2022-08-24T11:59:44;100719.00;;;28.80
4421;BMP180;11824;51.178;13.546;2022-08-24T12:02:21;100720.00;;;28.70
4421;BMP180;11824;51.178;13.546;2022-08-24T12:05:01;100719.00;;;28.70
4421;BMP180;11824;51.178;13.546;2022-08-24T12:07:51;100717.00;;;28.70
4421;BMP180;11824;51.178;13.546;2022-08-24T12:10:34;100730.00;;;28.70
4421;BMP180;11824;51.178;13.546;2022-08-24T12:13:25;100728.00;;;28.80
4421;BMP180;11824;51.178;13.546;2022-08-24T12:16:19;100719.00;;;28.80
4421;BMP180;11824;51.178;13.546;2022-08-24T12:19:18;100726.00;;;28.80
4421;BMP180;11824;51.178;13.546;2022-08-24T12:22:05;100723.00;;;28.80
4421;BMP180;11824;51.178;13.546;2022-08-24T12:24:58;100730.00;;;28.80
4421;BMP180;11824;51.178;13.546;2022-08-24T12:27:57;100722.00;;;28.70
4421;BMP180;11824;51.178;13.546;2022-08-24T12:30:43;100724.00;;;28.50
4421;BMP180;11824;51.178;13.546;2022-08-24T12:33:22;100721.00;;;28.40
4421;BMP180;11824;51.178;13.546;2022-08-24T12:36:17;100724.00;;;28.30
4421;BMP180;11824;51.178;13.546;2022-08-24T12:39:04;100725.00;;;28.30
4421;BMP180;11824;51.178;13.546;2022-08-24T12:41:37;100722.00;;;28.20
4421;BMP180;11824;51.178;13.546;2022-08-24T12:44:12;100720.00;;;28.20
4421;BMP180;11824;51.178;13.546;2022-08-24T12:47:02;100717.00;;;28.20
4421;BMP180;11824;51.178;13.546;2022-08-24T12:49:49;100713.00;;;28.20
4421;BMP180;11824;51.178;13.546;2022-08-24T12:56:02;100709.00;;;28.20
4421;BMP180;11824;51.178;13.546;2022-08-24T12:58:53;100713.00;;;28.20
4421;BMP180;11824;51.178;13.546;2022-08-24T13:01:27;100703.00;;;28.20
4421;BMP180;11824;51.178;13.546;2022-08-24T13:04:14;100700.00;;;28.30
4421;BMP180;11824;51.178;13.546;2022-08-24T13:06:48;100698.00;;;28.40
4421;BMP180;11824;51.178;13.546;2022-08-24T13:09:30;100706.00;;;28.50
4421;BMP180;11824;51.178;13.546;2022-08-24T13:15:25;100712.00;;;28.50
4421;BMP180;11824;51.178;13.546;2022-08-24T13:17:57;100721.00;;;28.50
4421;BMP180;11824;51.178;13.546;2022-08-24T13:20:54;100716.00;;;28.50
4421;BMP180;11824;51.178;13.546;2022-08-24T13:23:23;100715.00;;;28.50
4421;BMP180;11824;51.178;13.546;2022-08-24T13:25:56;100714.00;;;28.50
4421;BMP180;11824;51.178;13.546;2022-08-24T13:28:43;100721.00;;;28.60
4421;BMP180;11824;51.178;13.546;2022-08-24T13:31:25;100718.00;;;28.60
4421;BMP180;11824;51.178;13.546;2022-08-24T13:33:57;100714.00;;;28.60
4421;BMP180;11824;51.178;13.546;2022-08-24T13:37:01;100714.00;;;28.70
4421;BMP180;11824;51.178;13.546;2022-08-24T13:39:54;100714.00;;;28.70
4421;BMP180;11824;51.178;13.546;2022-08-24T13:42:55;100710.00;;;28.80
4421;BMP180;11824;51.178;13.546;2022-08-24T13:45:34;100714.00;;;28.80
4421;BMP180;11824;51.178;13.546;2022-08-24T13:48:23;100704.00;;;28.90
4421;BMP180;11824;51.178;13.546;2022-08-24T13:51:17;100703.00;;;28.90
4421;BMP180;11824;51.178;13.546;2022-08-24T13:53:57;100704.00;;;28.80
4421;BMP180;11824;51.178;13.546;2022-08-24T13:56:37;100701.00;;;28.80
4421;BMP180;11824;51.178;13.546;2022-08-24T13:59:16;100705.00;;;28.70
4421;BMP180;11824;51.178;13.546;2022-08-24T14:02:01;100700.00;;;28.60
4421;BMP180;11824;51.178;13.546;2022-08-24T14:04:40;100704.00;;;28.60
4421;BMP180;11824;51.178;13.546;2022-08-24T14:07:17;100698.00;;;28.40
4421;BMP180;11824;51.178;13.546;2022-08-24T14:09:58;100700.00;;;28.30
4421;BMP180;11824;51.178;13.546;2022-08-24T14:12:44;100696.00;;;28.20
4421;BMP180;11824;51.178;13.546;2022-08-24T14:15:23;100704.00;;;28.10
4421;BMP180;11824;51.178;13.546;2022-08-24T14:18:07;100702.00;;;28.00
4421;BMP180;11824;51.178;13.546;2022-08-24T14:20:53;100689.00;;;27.90
4421;BMP180;11824;51.178;13.546;2022-08-24T14:23:33;100694.00;;;27.90
4421;BMP180;11824;51.178;13.546;2022-08-24T14:29:29;100688.00;;;27.80
4421;BMP180;11824;51.178;13.546;2022-08-24T14:32:43;100688.00;;;27.80
4421;BMP180;11824;51.178;13.546;2022-08-24T14:35:34;100695.00;;;27.80
4421;BMP180;11824;51.178;13.546;2022-08-24T14:41:09;100689.00;;;27.90
4421;BMP180;11824;51.178;13.546;2022-08-24T14:47:02;100672.00;;;28.10
4421;BMP180;11824;51.178;13.546;2022-08-24T14:49:44;100675.00;;;28.20
4421;BMP180;11824;51.178;13.546;2022-08-24T14:52:35;100679.00;;;28.40
4421;BMP180;11824;51.178;13.546;2022-08-24T14:55:11;100671.00;;;28.50
4421;BMP180;11824;51.178;13.546;2022-08-24T14:58:00;100670.00;;;28.60
4421;BMP180;11824;51.178;13.546;2022-08-24T15:01:01;100672.00;;;28.70
4421;BMP180;11824;51.178;13.546;2022-08-24T15:03:53;100668.00;;;28.70
4421;BMP180;11824;51.178;13.546;2022-08-24T15:06:28;100667.00;;;28.60
4421;BMP180;11824;51.178;13.546;2022-08-24T15:09:18;100676.00;;;28.50
4421;BMP180;11824;51.178;13.546;2022-08-24T15:11:48;100668.00;;;28.50
4421;BMP180;11824;51.178;13.546;2022-08-24T15:14:26;100662.00;;;28.40
4421;BMP180;11824;51.178;13.546;2022-08-24T15:17:07;100664.00;;;28.30
4421;BMP180;11824;51.178;13.546;2022-08-24T15:19:47;100664.00;;;28.20
4421;BMP180;11824;51.178;13.546;2022-08-24T15:22:25;100669.00;;;28.10
4421;BMP180;11824;51.178;13.546;2022-08-24T15:25:05;100658.00;;;28.10
4421;BMP180;11824;51.178;13.546;2022-08-24T15:27:42;100666.00;;;28.00
4421;BMP180;11824;51.178;13.546;2022-08-24T15:30:22;100659.00;;;28.00
4421;BMP180;11824;51.178;13.546;2022-08-24T15:33:00;100655.00;;;27.90
4421;BMP180;11824;51.178;13.546;2022-08-24T15:35:35;100657.00;;;27.80
4421;BMP180;11824;51.178;13.546;2022-08-24T15:38:21;100661.00;;;27.70
4421;BMP180;11824;51.178;13.546;2022-08-24T15:41:03;100660.00;;;27.60
4421;BMP180;11824;51.178;13.546;2022-08-24T15:43:34;100653.00;;;27.60
4421;BMP180;11824;51.178;13.546;2022-08-24T15:46:04;100661.00;;;27.50